Time;durP1;ratioP1;P1;durP2;ratioP2;P2;SDS_P1;SDS_P2;PMS_P1;PMS_P2;Temp;Humidity;BMP_temperature;BMP_pressure;BME280_temperature;BME280_humidity;BME280_pressure;Samples;Min_cycle;Max_cycle;Signal;HPM_P1;HPM_P2
2022/07/11 00:00:08;;;;;;;2.07;1.97;;;22.10;59.50;23.20;101503.00;;;;5086574;28;20165;-43
2022/07/11 00:02:34;;;;;;;2.43;2.03;;;22.00;59.40;23.20;101382.00;;;;5086664;28;20177;-44
2022/07/11 00:05:02;;;;;;;2.13;1.80;;;22.10;59.50;23.20;101500.00;;;;5086652;28;20225;-43
2022/07/11 00:07:27;;;;;;;2.50;2.30;;;22.00;59.40;23.20;101499.00;;;;5085937;28;20223;-44
2022/07/11 00:09:53;;;;;;;2.40;2.17;;;22.00;59.50;23.20;101497.00;;;;5086589;28;20243;-44
2022/07/11 00:12:21;;;;;;;2.43;2.13;;;22.00;59.50;23.20;101490.00;;;;5086518;28;20168;-44
2022/07/11 00:14:48;;;;;;;2.47;2.27;;;22.00;59.60;23.20;101492.00;;;;5086429;28;20803;-44
2022/07/11 00:17:13;;;;;;;3.00;2.10;;;22.00;59.70;23.20;101483.00;;;;5086473;28;20192;-44
2022/07/11 00:19:39;;;;;;;2.13;1.93;;;22.00;59.80;23.20;101483.00;;;;5086458;28;20176;-44
2022/07/11 00:22:05;;;;;;;2.03;1.93;;;22.00;59.70;23.20;101479.00;;;;5086303;28;20181;-43
2022/07/11 00:24:31;;;;;;;2.30;2.10;;;22.00;59.80;23.20;101483.00;;;;5086085;28;20188;-44
2022/07/11 00:26:57;;;;;;;2.50;2.10;;;22.00;59.70;23.00;101482.00;;;;5085791;28;20231;-44
2022/07/11 00:29:22;;;;;;;2.10;2.00;;;22.00;59.80;23.10;101491.00;;;;5086174;28;20173;-44
2022/07/11 00:31:48;;;;;;;2.23;2.03;;;22.00;59.80;23.10;101484.00;;;;5086333;28;20204;-44
2022/07/11 00:34:15;;;;;;;2.00;1.90;;;22.00;59.80;23.10;101487.00;;;;5086171;28;20164;-47
2022/07/11 00:36:41;;;;;;;2.20;2.10;;;22.00;59.80;23.10;101479.00;;;;5086224;28;20196;-44
2022/07/11 00:39:06;;;;;;;2.03;1.90;;;22.00;59.80;23.10;101479.00;;;;5086100;28;20169;-43
2022/07/11 00:41:32;;;;;;;2.20;2.00;;;22.00;59.80;23.10;101484.00;;;;5085993;28;20179;-44
2022/07/11 00:43:59;;;;;;;2.30;2.10;;;22.00;59.80;23.10;101477.00;;;;5085801;28;20786;-43
2022/07/11 00:46:26;;;;;;;1.93;1.83;;;21.90;59.60;23.10;101481.00;;;;5085504;28;20201;-44
2022/07/11 00:48:52;;;;;;;2.20;2.00;;;21.90;59.70;23.10;101478.00;;;;5085876;28;20182;-43
2022/07/11 00:51:20;;;;;;;2.37;2.17;;;21.90;59.80;23.10;101481.00;;;;5085921;28;20259;-43
2022/07/11 00:53:49;;;;;;;2.30;2.10;;;21.90;59.80;23.10;101475.00;;;;5084828;28;20260;-44
2022/07/11 00:56:14;;;;;;;2.37;2.00;;;22.00;59.80;23.10;101481.00;;;;5085033;28;20757;-43
2022/07/11 00:58:40;;;;;;;2.40;2.20;;;21.90;59.80;23.10;101480.00;;;;5084673;28;20176;-43
2022/07/11 01:01:06;;;;;;;2.40;2.20;;;21.90;59.80;23.10;101466.00;;;;5084778;28;20184;-43
2022/07/11 01:03:35;;;;;;;2.07;1.97;;;21.90;59.80;23.10;101480.00;;;;5087230;28;20177;-43
2022/07/11 01:06:02;;;;;;;2.20;2.00;;;21.90;59.80;23.10;101472.00;;;;5089658;28;20586;-44
2022/07/11 01:08:31;;;;;;;3.27;2.23;;;21.90;59.80;23.10;101479.00;;;;5089690;28;20226;-45
2022/07/11 01:11:01;;;;;;;2.03;1.90;;;21.90;59.80;23.10;101478.00;;;;5088693;28;20172;-44
2022/07/11 01:13:27;;;;;;;2.33;2.13;;;21.90;59.80;23.10;101470.00;;;;5088698;28;20872;-44
2022/07/11 01:16:13;;;;;;;2.43;2.00;;;21.90;59.80;23.10;101475.00;;;;5089770;28;20268;-45
2022/07/11 01:18:53;;;;;;;2.30;2.10;;;21.90;59.80;23.10;101479.00;;;;5089461;28;20166;-45
2022/07/11 01:21:40;;;;;;;2.13;2.00;;;21.90;59.80;23.00;101464.00;;;;5089592;28;20215;-43
2022/07/11 01:24:06;;;;;;;2.03;1.93;;;21.90;59.90;23.00;101468.00;;;;5091220;28;20824;-44
2022/07/11 01:26:32;;;;;;;2.10;2.00;;;21.90;59.80;23.00;101464.00;;;;5089319;28;20208;-43
2022/07/11 01:29:12;;;;;;;2.33;2.13;;;21.90;59.80;23.00;101461.00;;;;5089468;28;20172;-44
2022/07/11 01:31:38;;;;;;;2.20;2.00;;;21.90;59.80;23.00;101450.00;;;;5089992;28;20200;-44
2022/07/11 01:34:04;;;;;;;2.00;1.90;;;21.90;59.80;23.00;101465.00;;;;5089834;28;20187;-44
2022/07/11 01:36:31;;;;;;;3.97;2.20;;;21.90;59.90;23.00;101456.00;;;;5089379;28;20204;-44
2022/07/11 01:38:56;;;;;;;2.00;1.90;;;21.80;59.80;23.00;101461.00;;;;5091736;28;20177;-44
2022/07/11 01:41:22;;;;;;;2.37;2.17;;;21.90;59.80;23.00;101463.00;;;;5089220;28;20165;-44
2022/07/11 01:43:48;;;;;;;2.23;2.03;;;21.80;59.80;23.00;101465.00;;;;5089367;28;20220;-47
2022/07/11 01:46:13;;;;;;;2.33;2.13;;;21.90;59.80;23.00;101454.00;;;;5089015;28;20875;-44
2022/07/11 01:48:39;;;;;;;2.20;2.10;;;21.80;59.80;23.00;101455.00;;;;5088890;28;20244;-44
2022/07/11 01:51:05;;;;;;;2.80;2.30;;;21.90;59.80;23.00;101455.00;;;;5088894;28;20197;-44
2022/07/11 01:53:30;;;;;;;2.23;2.10;;;21.80;59.70;23.00;101459.00;;;;5089148;28;20169;-43
2022/07/11 01:55:56;;;;;;;2.20;2.00;;;21.80;59.80;23.00;101455.00;;;;5089016;28;20230;-44
2022/07/11 01:58:22;;;;;;;2.10;2.00;;;21.80;59.70;23.00;101460.00;;;;5088827;28;20216;-44
2022/07/11 02:00:48;;;;;;;2.27;2.00;;;21.80;59.80;23.00;101459.00;;;;5089783;28;20184;-44
2022/07/11 02:03:13;;;;;;;2.37;2.17;;;21.80;59.80;23.00;101458.00;;;;5088966;28;20179;-44
2022/07/11 02:05:39;;;;;;;2.30;2.10;;;21.80;59.80;22.90;101460.00;;;;5088835;28;20224;-44
2022/07/11 02:08:13;;;;;;;2.27;2.07;;;21.80;59.80;23.00;101457.00;;;;5088214;28;20250;-44
2022/07/11 02:10:44;;;;;;;2.10;2.00;;;21.80;59.70;22.90;101449.00;;;;5088704;28;20162;-44
2022/07/11 02:13:10;;;;;;;2.20;2.10;;;21.80;59.80;22.90;101449.00;;;;5088391;28;20622;-43
2022/07/11 02:15:36;;;;;;;2.47;2.27;;;21.80;59.80;22.90;101450.00;;;;5088360;28;20169;-45
2022/07/11 02:18:02;;;;;;;2.50;2.30;;;21.80;59.80;22.90;101455.00;;;;5088485;28;20195;-44
2022/07/11 02:20:28;;;;;;;2.40;2.20;;;21.80;59.80;22.90;101452.00;;;;5088839;28;20302;-43
2022/07/11 02:22:54;;;;;;;2.30;2.10;;;21.80;59.80;22.90;101458.00;;;;5088261;28;20180;-44
2022/07/11 02:25:21;;;;;;;3.27;2.10;;;21.70;59.90;22.90;101462.00;;;;5088404;28;20192;-44
2022/07/11 02:27:47;;;;;;;2.30;2.10;;;21.80;59.80;22.90;101458.00;;;;5088154;28;20196;-43
2022/07/11 02:30:13;;;;;;;3.57;2.30;;;21.80;59.80;22.90;101455.00;;;;5088268;28;20210;-44
2022/07/11 02:32:38;;;;;;;3.43;2.10;;;21.70;59.70;22.90;101461.00;;;;5088349;28;20926;-44
2022/07/11 02:35:05;;;;;;;2.30;2.10;;;21.70;59.60;22.90;101452.00;;;;5088343;28;20196;-44
2022/07/11 02:37:31;;;;;;;2.70;2.23;;;21.80;59.70;22.90;101458.00;;;;5087838;28;20200;-43
2022/07/11 02:39:57;;;;;;;2.47;2.20;;;21.70;59.60;22.90;101454.00;;;;5088194;28;20668;-43
2022/07/11 02:42:23;;;;;;;2.83;2.30;;;21.80;59.80;22.90;101458.00;;;;5088110;28;20169;-44
2022/07/11 02:44:48;;;;;;;2.30;2.10;;;21.70;59.60;22.90;101460.00;;;;5087985;28;20262;-44
2022/07/11 02:47:14;;;;;;;2.93;2.37;;;21.70;59.70;22.90;101453.00;;;;5087561;28;20207;-44
2022/07/11 02:49:40;;;;;;;2.50;2.27;;;21.70;59.70;22.90;101458.00;;;;5088036;28;20206;-43
2022/07/11 02:52:07;;;;;;;2.33;2.13;;;21.70;59.70;22.90;101453.00;;;;5086588;28;20177;-43
2022/07/11 02:54:32;;;;;;;2.10;2.00;;;21.70;59.70;22.90;101456.00;;;;5087859;28;20229;-43
2022/07/11 02:56:58;;;;;;;2.30;2.10;;;21.70;59.70;22.80;101460.00;;;;5086670;28;20193;-44
2022/07/11 02:59:24;;;;;;;2.80;2.27;;;21.70;59.70;22.80;101460.00;;;;5087957;28;20201;-43
2022/07/11 03:01:50;;;;;;;2.83;2.43;;;21.70;59.70;22.80;101460.00;;;;5088662;28;20303;-44
2022/07/11 03:04:16;;;;;;;2.30;2.10;;;21.70;59.70;22.80;101466.00;;;;5087500;28;20173;-45
2022/07/11 03:06:42;;;;;;;2.60;2.40;;;21.70;59.70;22.80;101466.00;;;;5087407;28;20672;-45
2022/07/11 03:09:08;;;;;;;2.50;2.30;;;21.70;59.60;22.80;101458.00;;;;5087125;28;20176;-45
2022/07/11 03:11:33;;;;;;;2.60;2.40;;;21.70;59.70;22.80;101457.00;;;;5087659;28;20176;-44
2022/07/11 03:14:00;;;;;;;2.53;2.30;;;21.70;59.70;22.80;101470.00;;;;5087429;28;20169;-43
2022/07/11 03:16:29;;;;;;;2.40;2.20;;;21.70;60.50;22.80;101468.00;;;;5078298;28;20212;-44
2022/07/11 03:18:56;;;;;;;2.40;2.20;;;21.70;59.80;22.80;101465.00;;;;5066597;28;20250;-44
2022/07/11 03:21:22;;;;;;;2.53;2.30;;;21.70;59.70;22.80;101466.00;;;;5066751;28;20174;-44
2022/07/11 03:23:49;;;;;;;2.77;2.13;;;21.70;59.80;22.80;101459.00;;;;5066147;28;20260;-44
2022/07/11 03:26:16;;;;;;;2.93;2.30;;;21.60;59.60;22.80;101462.00;;;;5064979;28;20251;-44
2022/07/11 03:28:41;;;;;;;7.90;2.60;;;21.60;59.60;22.70;101474.00;;;;5066350;28;20208;-43
2022/07/11 03:31:07;;;;;;;5.87;2.40;;;21.70;60.30;22.70;101473.00;;;;5066094;28;20197;-43
2022/07/11 03:33:33;;;;;;;5.23;2.60;;;21.60;59.90;22.70;101479.00;;;;5066599;28;20196;-43
2022/07/11 03:35:59;;;;;;;4.83;2.30;;;21.60;59.90;22.70;101476.00;;;;5066402;28;20312;-44
2022/07/11 03:38:24;;;;;;;5.20;2.40;;;21.60;59.90;22.70;101479.00;;;;5066346;28;20794;-44
2022/07/11 03:40:50;;;;;;;7.10;2.50;;;21.60;59.70;22.70;101470.00;;;;5065996;28;20248;-44
2022/07/11 03:43:16;;;;;;;6.17;2.90;;;21.60;59.80;22.70;101473.00;;;;5065674;28;20189;-44
2022/07/11 03:45:42;;;;;;;4.33;2.40;;;21.60;59.60;22.70;101468.00;;;;5065758;28;20209;-44
2022/07/11 03:48:08;;;;;;;5.50;2.50;;;21.60;59.60;22.70;101476.00;;;;5065724;28;20199;-44
2022/07/11 03:50:34;;;;;;;4.13;2.40;;;21.60;59.60;22.70;101473.00;;;;5065770;28;20245;-44
2022/07/11 03:53:01;;;;;;;5.77;2.47;;;21.60;59.60;22.70;101486.00;;;;5066227;28;20350;-44
2022/07/11 03:55:28;;;;;;;3.97;2.30;;;21.60;59.60;22.70;101487.00;;;;5066895;28;20176;-44
2022/07/11 03:57:53;;;;;;;7.40;2.50;;;21.60;59.60;22.70;101481.00;;;;5065694;28;20648;-44
2022/07/11 04:00:20;;;;;;;5.40;2.70;;;21.60;59.60;22.70;101481.00;;;;5065385;28;20362;-44
2022/07/11 04:02:46;;;;;;;4.07;2.30;;;21.60;59.60;22.70;101478.00;;;;5065893;28;20246;-43
2022/07/11 04:05:13;;;;;;;2.77;2.20;;;21.60;59.50;22.60;101475.00;;;;5064904;28;20173;-45
2022/07/11 04:07:39;;;;;;;4.20;2.40;;;21.50;59.40;22.60;101481.00;;;;5065325;28;20224;-45
2022/07/11 04:10:05;;;;;;;4.77;2.27;;;21.50;59.50;22.60;101484.00;;;;5065853;28;20205;-44
2022/07/11 04:12:31;;;;;;;3.37;2.43;;;21.50;59.40;22.60;101477.00;;;;5065846;28;20177;-44
2022/07/11 04:14:57;;;;;;;4.27;2.60;;;21.50;59.30;22.60;101469.00;;;;5065147;28;20260;-44
2022/07/11 04:17:23;;;;;;;4.30;2.50;;;21.50;59.60;22.60;101477.00;;;;5065181;28;20232;-45
2022/07/11 04:19:48;;;;;;;3.87;2.40;;;21.50;59.40;22.60;101469.00;;;;5065615;28;20180;-44
2022/07/11 04:22:14;;;;;;;2.87;2.57;;;21.50;59.30;22.60;101474.00;;;;5068589;28;20173;-47
2022/07/11 04:24:40;;;;;;;6.00;2.40;;;21.50;60.00;22.50;101481.00;;;;5065533;28;20275;-44
2022/07/11 04:27:05;;;;;;;6.23;2.50;;;21.50;59.40;22.50;101492.00;;;;5065143;28;20208;-43
2022/07/11 04:29:31;;;;;;;3.20;2.60;;;21.40;59.30;22.50;101481.00;;;;5065254;28;20173;-44
2022/07/11 04:31:57;;;;;;;7.77;2.70;;;21.40;59.40;22.50;101488.00;;;;5065543;28;20166;-44
2022/07/11 04:34:23;;;;;;;10.87;2.80;;;21.40;59.50;22.50;101491.00;;;;5065255;28;20172;-44
2022/07/11 04:36:48;;;;;;;11.20;2.90;;;21.40;59.50;22.50;101485.00;;;;5064908;28;20219;-45
2022/07/11 04:39:14;;;;;;;9.37;2.90;;;21.40;59.60;22.40;101494.00;;;;5065020;28;20238;-44
2022/07/11 04:41:40;;;;;;;9.60;3.40;;;21.40;59.50;22.50;101489.00;;;;5064878;28;20169;-45
2022/07/11 04:44:06;;;;;;;8.00;2.93;;;21.40;59.60;22.40;101494.00;;;;5065152;28;20185;-44
2022/07/11 04:46:31;;;;;;;7.13;3.20;;;21.40;59.80;22.40;101487.00;;;;5064499;28;20217;-44
2022/07/11 04:48:58;;;;;;;5.97;3.00;;;21.40;59.80;22.40;101486.00;;;;5065234;28;20176;-44
2022/07/11 04:51:24;;;;;;;6.17;3.10;;;21.40;59.80;22.40;101491.00;;;;5065447;28;20178;-44
2022/07/11 04:53:50;;;;;;;5.67;2.67;;;21.40;59.90;22.40;101487.00;;;;5065134;28;20936;-46
2022/07/11 04:56:16;;;;;;;7.77;2.60;;;21.40;59.90;22.40;101492.00;;;;5064437;28;20176;-44
2022/07/11 04:58:42;;;;;;;5.57;2.50;;;21.40;60.00;22.40;101497.00;;;;5064894;28;20278;-45
2022/07/11 05:01:07;;;;;;;4.73;2.63;;;21.40;59.90;22.40;101493.00;;;;5065089;28;20178;-43
2022/07/11 05:03:33;;;;;;;3.93;2.60;;;21.30;59.90;22.40;101493.00;;;;5065062;28;20177;-46
2022/07/11 05:05:59;;;;;;;5.87;2.77;;;21.30;59.90;22.40;101491.00;;;;5064896;28;20200;-45
2022/07/11 05:08:25;;;;;;;3.23;2.70;;;21.30;60.60;22.40;101495.00;;;;5065574;28;20282;-43
2022/07/11 05:10:51;;;;;;;5.93;2.70;;;21.30;60.30;22.40;101501.00;;;;5065426;28;20794;-44
2022/07/11 05:13:16;;;;;;;5.43;2.50;;;21.30;60.30;22.40;101497.00;;;;5065418;28;20189;-45
2022/07/11 05:15:44;;;;;;;4.50;2.70;;;21.30;59.90;22.40;101506.00;;;;5064770;28;20635;-43
2022/07/11 05:18:10;;;;;;;3.90;2.70;;;21.30;60.30;22.40;101507.00;;;;5064637;28;20855;-46
2022/07/11 05:20:36;;;;;;;3.30;2.67;;;21.30;60.40;22.40;101504.00;;;;5067707;28;20181;-46
2022/07/11 05:23:02;;;;;;;4.10;2.30;;;21.30;60.30;22.40;101503.00;;;;5065417;28;20310;-46
2022/07/11 05:25:28;;;;;;;3.33;2.40;;;21.30;60.40;22.40;101521.00;;;;5064511;28;20277;-44
2022/07/11 05:27:53;;;;;;;3.97;2.40;;;21.30;60.20;22.40;101510.00;;;;5064374;28;20200;-44
2022/07/11 05:30:19;;;;;;;2.87;2.20;;;21.30;60.30;22.40;101513.00;;;;5064730;28;20196;-44
2022/07/11 05:32:45;;;;;;;4.60;2.40;;;21.30;60.80;22.40;101508.00;;;;5064927;28;20205;-44
2022/07/11 05:35:11;;;;;;;3.93;2.43;;;21.30;60.50;22.40;101514.00;;;;5066174;28;20178;-43
2022/07/11 05:37:36;;;;;;;2.67;2.43;;;21.30;60.40;22.40;101522.00;;;;5064747;28;20197;-43
2022/07/11 05:40:03;;;;;;;3.23;2.43;;;21.30;60.50;22.30;101516.00;;;;5064853;28;20235;-43
2022/07/11 05:42:29;;;;;;;2.77;2.30;;;21.30;60.80;22.40;101520.00;;;;5064956;28;20894;-42
2022/07/11 05:44:54;;;;;;;2.53;2.33;;;21.30;61.20;22.40;101519.00;;;;5064319;28;20177;-44
2022/07/11 05:47:20;;;;;;;3.50;2.30;;;21.30;60.80;22.30;101522.00;;;;5064211;28;20213;-46
2022/07/11 05:49:46;;;;;;;2.97;2.20;;;21.30;61.20;22.30;101523.00;;;;5066025;28;20181;-42
2022/07/11 05:52:12;;;;;;;2.43;2.23;;;21.20;61.30;22.30;101522.00;;;;5067895;28;20168;-43
2022/07/11 05:54:37;;;;;;;3.00;2.40;;;21.20;61.20;22.30;101524.00;;;;5068134;28;20181;-46
2022/07/11 05:57:03;;;;;;;3.23;2.20;;;21.20;61.30;22.30;101525.00;;;;5071441;28;20193;-42
2022/07/11 05:59:29;;;;;;;2.73;2.20;;;21.20;61.40;22.30;101523.00;;;;5068142;28;20177;-44
2022/07/11 06:01:55;;;;;;;2.90;2.20;;;21.20;62.00;22.30;101532.00;;;;5067958;28;20665;-44
2022/07/11 06:04:21;;;;;;;3.10;2.23;;;21.20;61.60;22.20;101531.00;;;;5068441;28;20267;-45
2022/07/11 06:06:47;;;;;;;2.70;2.00;;;21.20;62.50;22.20;101533.00;;;;5067627;28;20210;-45
2022/07/11 06:09:13;;;;;;;2.17;1.90;;;21.10;62.40;22.20;101530.00;;;;5067778;28;20179;-44
2022/07/11 06:11:38;;;;;;;2.50;2.00;;;21.10;62.40;22.10;101527.00;;;;5067875;28;20172;-44
2022/07/11 06:14:05;;;;;;;2.40;1.83;;;21.10;62.90;22.10;101539.00;;;;5066962;28;20177;-44
2022/07/11 06:16:31;;;;;;;2.10;1.90;;;21.00;62.60;22.10;101527.00;;;;5067505;28;20204;-43
2022/07/11 06:18:57;;;;;;;2.73;2.07;;;21.00;62.70;22.10;101543.00;;;;5067604;28;20177;-43
2022/07/11 06:21:23;;;;;;;2.57;2.10;;;21.10;62.50;22.10;101538.00;;;;5067689;28;20177;-44
2022/07/11 06:23:48;;;;;;;2.37;2.00;;;21.00;62.50;22.10;101539.00;;;;5067728;28;20231;-44
2022/07/11 06:26:15;;;;;;;2.20;1.97;;;21.10;62.40;22.10;101540.00;;;;5067128;28;20208;-43
2022/07/11 06:28:41;;;;;;;2.00;1.90;;;21.00;62.70;22.10;101543.00;;;;5067417;28;20173;-43
2022/07/11 06:31:07;;;;;;;1.87;1.77;;;21.00;62.40;22.10;101544.00;;;;5067565;28;20731;-45
2022/07/11 06:33:33;;;;;;;2.30;2.10;;;21.00;62.50;22.10;101547.00;;;;5069730;28;20188;-44
2022/07/11 06:35:59;;;;;;;2.07;1.80;;;21.00;62.90;22.00;101550.00;;;;5066971;28;20180;-44
2022/07/11 06:38:24;;;;;;;2.73;2.20;;;21.00;62.90;22.10;101547.00;;;;5067204;28;20205;-46
2022/07/11 06:40:50;;;;;;;3.73;2.00;;;21.00;62.70;22.10;101562.00;;;;5067325;28;20172;-44
2022/07/11 06:43:16;;;;;;;2.13;1.90;;;21.00;62.60;22.10;101555.00;;;;5067501;28;20180;-44
2022/07/11 06:45:42;;;;;;;3.07;1.90;;;21.10;62.70;22.10;101549.00;;;;5066892;28;20251;-47
2022/07/11 06:48:08;;;;;;;3.23;2.10;;;21.00;62.80;22.10;101546.00;;;;5067404;28;20221;-45
2022/07/11 06:50:33;;;;;;;3.70;2.17;;;21.10;63.10;22.10;101554.00;;;;5067146;28;20770;-44
2022/07/11 06:52:59;;;;;;;2.77;1.80;;;21.00;62.90;22.10;101543.00;;;;5067521;28;20187;-44
2022/07/11 06:55:25;;;;;;;4.23;2.00;;;21.10;62.50;22.10;101541.00;;;;5066448;28;20184;-42
2022/07/11 06:57:51;;;;;;;4.50;2.00;;;21.00;62.60;22.10;101541.00;;;;5065471;28;20203;-44
2022/07/11 07:00:19;;;;;;;2.03;1.80;;;21.10;62.40;22.10;101540.00;;;;5066861;28;20788;-43
2022/07/11 07:02:45;;;;;;;2.20;2.00;;;21.10;62.50;22.10;101541.00;;;;5066803;28;20181;-43
2022/07/11 07:05:11;;;;;;;2.27;1.90;;;21.10;63.00;22.10;101538.00;;;;5066653;28;20170;-43
2022/07/11 07:07:37;;;;;;;3.43;2.00;;;21.10;62.70;22.10;101544.00;;;;5065982;28;20215;-44
2022/07/11 07:10:03;;;;;;;3.30;1.83;;;21.00;62.70;22.10;101539.00;;;;5068792;28;20204;-45
2022/07/11 07:12:29;;;;;;;2.20;1.70;;;21.10;62.60;22.10;101540.00;;;;5066942;28;20189;-42
2022/07/11 07:14:55;;;;;;;2.27;2.07;;;21.10;62.40;22.10;101538.00;;;;5066339;28;20184;-44
2022/07/11 07:17:21;;;;;;;2.40;2.13;;;21.00;62.40;22.10;101550.00;;;;5066800;28;20604;-43
2022/07/11 07:19:46;;;;;;;2.50;2.30;;;21.00;63.10;22.00;101541.00;;;;4927844;28;20188;-45
2022/07/11 07:22:16;;;;;;;2.33;2.13;;;20.90;63.60;22.00;101544.00;;;;5086407;28;20177;-43
2022/07/11 07:24:42;;;;;;;2.63;2.07;;;20.90;63.80;22.00;101548.00;;;;5101669;27;20562;-43
2022/07/11 07:27:08;;;;;;;2.43;2.03;;;21.00;63.50;22.00;101552.00;;;;5094602;28;20797;-46
2022/07/11 07:29:34;;;;;;;3.57;2.67;;;21.00;63.20;22.00;101565.00;;;;5106978;28;20384;-45
2022/07/11 07:32:00;;;;;;;4.23;3.10;;;21.00;63.70;22.00;101560.00;;;;5107379;28;20190;-44
2022/07/11 07:34:25;;;;;;;3.87;3.57;;;21.00;63.80;22.00;101552.00;;;;5106920;28;20761;-42
2022/07/11 07:36:51;;;;;;;6.30;4.30;;;21.00;64.10;22.00;101555.00;;;;5106926;28;20198;-44
2022/07/11 07:39:17;;;;;;;4.43;4.03;;;21.00;64.00;22.00;101559.00;;;;5092341;28;20544;-47
2022/07/11 07:41:43;;;;;;;4.87;4.43;;;21.00;64.40;22.00;101556.00;;;;5083646;28;20172;-45
2022/07/11 07:44:09;;;;;;;7.60;5.10;;;21.00;64.40;22.00;101551.00;;;;5089589;28;20171;-43
2022/07/11 07:46:35;;;;;;;6.83;4.70;;;21.00;64.50;22.00;101552.00;;;;5089074;28;20221;-43
2022/07/11 07:49:00;;;;;;;6.77;5.70;;;21.00;64.70;22.10;101556.00;;;;5089090;28;20190;-43
2022/07/11 07:51:26;;;;;;;6.87;6.17;;;21.00;64.50;22.00;101556.00;;;;5089139;28;20172;-43
2022/07/11 07:53:52;;;;;;;7.53;6.73;;;21.00;64.50;22.00;101558.00;;;;5089320;28;20161;-44
2022/07/11 07:56:19;;;;;;;7.30;6.60;;;21.00;64.70;22.00;101565.00;;;;5088896;28;20649;-44
2022/07/11 07:58:45;;;;;;;8.23;7.40;;;20.90;64.70;22.00;101566.00;;;;5089236;28;20183;-44
2022/07/11 08:03:55;;;;;;;9.43;8.07;;;20.90;64.40;22.00;101563.00;;;;5090261;28;20181;-43
2022/07/11 08:06:20;;;;;;;9.10;8.20;;;21.00;64.50;22.00;101562.00;;;;5089699;28;20591;-43
2022/07/11 08:08:46;;;;;;;9.10;8.30;;;20.90;64.30;22.00;101557.00;;;;5088967;28;20171;-44
2022/07/11 08:11:12;;;;;;;12.10;8.63;;;20.90;64.50;22.00;101560.00;;;;5090757;28;20234;-44
2022/07/11 08:13:38;;;;;;;9.97;9.07;;;20.90;65.00;22.00;101554.00;;;;5090132;28;20180;-45
2022/07/11 08:16:07;;;;;;;9.27;8.47;;;20.90;64.90;22.00;101566.00;;;;5106464;28;20746;-42
2022/07/11 08:18:33;;;;;;;9.00;8.20;;;20.90;65.00;22.00;101557.00;;;;5101580;28;20185;-46
2022/07/11 08:20:59;;;;;;;9.23;8.33;;;20.90;65.00;22.00;101560.00;;;;5029243;28;20237;-43
2022/07/11 08:23:25;;;;;;;9.07;8.20;;;20.90;64.90;22.00;101559.00;;;;5089540;28;20180;-43
2022/07/11 08:25:51;;;;;;;9.37;8.40;;;20.90;64.60;22.00;101548.00;;;;5088647;28;20279;-42
2022/07/11 08:28:17;;;;;;;9.20;8.40;;;21.00;64.20;22.00;101553.00;;;;5088544;28;20252;-44
2022/07/11 08:30:42;;;;;;;9.17;8.27;;;21.00;64.40;22.00;101560.00;;;;5088740;28;20876;-45
2022/07/11 08:33:09;;;;;;;10.10;9.20;;;21.00;64.20;22.00;101557.00;;;;5087368;28;20187;-46
2022/07/11 08:35:35;;;;;;;9.30;8.50;;;21.00;64.40;22.10;101547.00;;;;5088938;28;20568;-45
2022/07/11 08:38:01;;;;;;;8.97;8.17;;;21.00;64.80;22.10;101554.00;;;;5087608;28;20250;-42
2022/07/11 08:40:27;;;;;;;10.93;8.60;;;21.00;65.00;22.00;101552.00;;;;5088594;28;20172;-43
2022/07/11 08:42:53;;;;;;;9.30;8.40;;;21.00;64.60;22.00;101556.00;;;;5088133;28;20232;-44
2022/07/11 08:45:19;;;;;;;9.00;8.10;;;21.00;64.80;22.10;101552.00;;;;5113397;28;20256;-45
2022/07/11 08:47:45;;;;;;;8.80;8.00;;;21.00;65.00;22.10;101559.00;;;;5099604;28;20212;-44
2022/07/11 08:50:12;;;;;;;9.03;8.23;;;21.00;64.70;22.10;101565.00;;;;5088421;28;20168;-44
2022/07/11 08:52:38;;;;;;;8.70;7.90;;;21.00;64.80;22.10;101561.00;;;;5088197;28;20175;-44
2022/07/11 08:55:07;;;;;;;8.90;8.20;;;21.00;64.50;22.10;101558.00;;;;5088579;28;20163;-44
2022/07/11 08:57:35;;;;;;;8.90;8.10;;;21.00;65.00;22.10;101566.00;;;;5088242;28;20192;-44
2022/07/11 09:00:00;;;;;;;9.30;8.43;;;21.00;64.90;22.10;101559.00;;;;5088183;28;20203;-43
2022/07/11 09:02:26;;;;;;;8.57;7.87;;;21.10;64.80;22.10;101561.00;;;;5086434;28;20219;-43
2022/07/11 09:04:52;;;;;;;8.60;7.80;;;21.10;64.50;22.10;101562.00;;;;5086983;28;20188;-43
2022/07/11 09:07:18;;;;;;;13.67;8.80;;;21.00;64.30;22.10;101577.00;;;;5086739;28;20213;-43
2022/07/11 09:09:44;;;;;;;10.30;9.30;;;21.00;65.60;22.20;101561.00;;;;5077180;28;20174;-43
2022/07/11 09:12:15;;;;;;;9.63;8.73;;;21.00;65.80;22.20;101559.00;;;;5067934;28;20185;-45
2022/07/11 09:14:49;;;;;;;10.93;8.93;;;21.10;65.70;22.20;101562.00;;;;5072269;28;20199;-44
2022/07/11 09:17:14;;;;;;;10.47;9.23;;;21.10;65.70;22.20;101562.00;;;;5087927;28;20200;-44
2022/07/11 09:19:41;;;;;;;9.80;8.90;;;21.10;65.70;22.30;101568.00;;;;5014133;28;20827;-45
2022/07/11 09:28:05;;;;;;;8.93;8.13;;;21.20;65.00;22.30;101558.00;;;;5091803;28;20214;-44
2022/07/11 09:30:43;;;;;;;9.00;8.17;;;21.20;65.00;22.30;101562.00;;;;5092004;28;20184;-45
2022/07/11 09:33:10;;;;;;;9.50;8.70;;;21.20;64.80;22.30;101553.00;;;;5092198;28;20163;-43
2022/07/11 09:35:41;;;;;;;8.73;7.93;;;21.30;64.70;22.30;101570.00;;;;5091552;28;20192;-43
2022/07/11 09:38:09;;;;;;;9.37;8.57;;;21.30;64.50;22.30;101566.00;;;;5091339;28;20185;-44
2022/07/11 09:40:36;;;;;;;9.27;8.50;;;21.30;64.40;22.40;101562.00;;;;5091593;28;20271;-45
2022/07/11 09:43:02;;;;;;;8.93;8.20;;;21.30;64.30;22.40;101561.00;;;;5091197;28;20169;-44
2022/07/11 09:45:30;;;;;;;9.83;7.60;;;21.30;64.10;22.40;101556.00;;;;5091897;28;20184;-43
2022/07/11 09:48:01;;;;;;;9.17;8.37;;;21.30;64.10;22.40;101551.00;;;;5091565;28;20296;-44
2022/07/11 09:50:28;;;;;;;8.90;8.20;;;21.40;64.20;22.40;101548.00;;;;5091711;28;20257;-43
2022/07/11 09:53:08;;;;;;;9.43;8.50;;;21.40;64.10;22.50;101551.00;;;;5091366;28;20222;-43
2022/07/11 09:55:41;;;;;;;8.80;8.10;;;21.40;64.30;22.50;101545.00;;;;5091989;28;20160;-45
2022/07/11 09:58:11;;;;;;;8.10;7.40;;;21.40;64.10;22.50;101547.00;;;;5091381;28;20655;-45
2022/07/11 10:00:38;;;;;;;9.17;8.37;;;21.40;64.00;22.50;101546.00;;;;5091215;28;20183;-42
2022/07/11 10:03:08;;;;;;;8.30;7.50;;;21.40;63.90;22.50;101552.00;;;;5091368;28;20565;-43
2022/07/11 10:05:35;;;;;;;8.63;7.83;;;21.50;64.00;22.50;101544.00;;;;5091404;28;20533;-42
2022/07/11 10:08:01;;;;;;;8.47;7.57;;;21.50;63.80;22.50;101542.00;;;;5091001;28;20201;-43
2022/07/11 10:10:28;;;;;;;8.33;7.60;;;21.50;63.80;22.60;101548.00;;;;5091194;28;20494;-43
2022/07/11 10:12:54;;;;;;;8.53;7.83;;;21.50;63.80;22.60;101548.00;;;;5091294;28;20581;-43
2022/07/11 10:15:30;;;;;;;8.73;8.03;;;21.60;63.80;22.60;101546.00;;;;5090955;28;20165;-43
2022/07/11 10:18:38;;;;;;;8.50;7.80;;;21.60;63.70;22.60;101555.00;;;;5074513;28;20194;-45
2022/07/11 10:21:11;;;;;;;8.77;8.07;;;21.60;63.90;22.60;101553.00;;;;5010947;28;20258;-44
2022/07/11 10:24:03;;;;;;;8.10;7.40;;;21.60;63.70;22.70;101562.00;;;;5089632;28;20169;-43
2022/07/11 10:27:16;;;;;;;8.23;7.53;;;21.60;63.50;22.70;101567.00;;;;5074373;28;20223;-44
2022/07/11 10:29:53;;;;;;;8.20;7.50;;;21.60;63.50;22.70;101561.00;;;;5084634;28;20238;-43
2022/07/11 10:32:19;;;;;;;8.03;7.40;;;21.70;63.50;22.70;101574.00;;;;5091727;28;20161;-43
2022/07/11 10:34:47;;;;;;;8.00;7.20;;;21.70;63.50;22.70;101571.00;;;;5090470;28;20779;-44
2022/07/11 10:37:13;;;;;;;8.10;7.40;;;21.70;63.40;22.70;101560.00;;;;5090002;28;20713;-43
2022/07/11 10:39:46;;;;;;;8.30;7.60;;;21.70;63.40;22.70;101572.00;;;;5090603;28;20257;-43
2022/07/11 10:42:19;;;;;;;8.60;7.90;;;21.70;63.20;22.80;101578.00;;;;5090903;28;20247;-45
2022/07/11 10:44:51;;;;;;;8.50;7.80;;;21.70;63.30;22.80;101566.00;;;;5089533;28;20829;-43
2022/07/11 10:47:45;;;;;;;8.60;7.77;;;21.70;63.40;22.80;101571.00;;;;5090227;28;20205;-44
2022/07/11 10:50:20;;;;;;;7.90;7.10;;;21.80;63.60;22.80;101570.00;;;;5090635;28;20173;-44
2022/07/11 10:52:48;;;;;;;9.50;7.40;;;21.80;63.20;22.80;101578.00;;;;5090622;28;20191;-43
2022/07/11 10:55:51;;;;;;;8.40;7.43;;;21.80;63.10;22.90;101584.00;;;;5072772;28;20176;-45